KFKL/FKL METAR and TAF weather

Enter ICAO airport designator
Station Type Date Time Source
KFKL METAR 2019/02/17 15:56 UTC NOAA

KFKL 171556Z AUTO 10009KT 10SM BKN100 M03/M08 A2994 RMK AO2 SLP160 T10281083 FZRANO


Station Type Date Time Source
KFKL Decoded METAR 2019/02/17 15:56 UTC NOAA

Franklin, Venango Regional Airport, PA, United States (KFKL) 41-23N 079-52W
Feb 17, 2019 - 10:56 AM EST / 2019.02.17 1556 UTC
Wind: from the E (100 degrees) at 10 MPH (9 KT):0
Visibility: 10 mile(s):0
Sky conditions: mostly cloudy
Temperature: 27.0 F (-2.8 C)
Windchill: 17 F (-8 C):1
Dew Point: 17.1 F (-8.3 C)
Relative Humidity: 65%
Pressure (altimeter): 29.94 in. Hg (1013 hPa)
ob: KFKL 171556Z AUTO 10009KT 10SM BKN100 M03/M08 A2994 RMK AO2 SLP160 T10281083 FZRANO
cycle: 16

Station Type Date Time Source
KFKL TAF 2019/02/17 15:06 UTC NOAA

TAF
AMD KFKL 171504Z 1715/1812 09009KT P6SM BKN100
FM172000 11007KT 6SM -SN OVC020
FM172300 11006KT 2SM -FZRASNPL OVC008
FM180500 07003KT 5SM -FZRASN OVC008
FM180600 06003KT 6SM -SN OVC003
FM180700 02004KT 6SM -FZDZSN OVC005
FM180800 31004KT P6SM -FZDZSN OVC008


Example: see airport list